sensor_id;sensor_type;location;lat;lon;timestamp;P1;durP1;ratioP1;P2;durP2;ratioP2
37063;SDS011;23211;53.912;9.138;2022-08-19T00:02:16;7.80;;;6.07;;
37063;SDS011;23211;53.912;9.138;2022-08-19T00:05:02;5.75;;;5.22;;
37063;SDS011;23211;53.912;9.138;2022-08-19T00:07:49;9.57;;;6.22;;
37063;SDS011;23211;53.912;9.138;2022-08-19T00:10:35;7.70;;;5.43;;
37063;SDS011;23211;53.912;9.138;2022-08-19T00:13:21;8.20;;;5.63;;
37063;SDS011;23211;53.912;9.138;2022-08-19T00:16:07;7.53;;;5.63;;
37063;SDS011;23211;53.912;9.138;2022-08-19T00:18:53;8.27;;;5.93;;
37063;SDS011;23211;53.912;9.138;2022-08-19T00:21:40;8.07;;;6.43;;
37063;SDS011;23211;53.912;9.138;2022-08-19T00:24:26;7.93;;;5.53;;
37063;SDS011;23211;53.912;9.138;2022-08-19T00:27:13;8.77;;;6.00;;
37063;SDS011;23211;53.912;9.138;2022-08-19T00:29:59;7.32;;;6.32;;
37063;SDS011;23211;53.912;9.138;2022-08-19T00:32:47;9.18;;;5.60;;
37063;SDS011;23211;53.912;9.138;2022-08-19T00:35:33;9.70;;;5.88;;
37063;SDS011;23211;53.912;9.138;2022-08-19T00:38:19;7.57;;;5.45;;
37063;SDS011;23211;53.912;9.138;2022-08-19T00:41:08;9.43;;;5.30;;
37063;SDS011;23211;53.912;9.138;2022-08-19T00:44:15;9.88;;;5.55;;
37063;SDS011;23211;53.912;9.138;2022-08-19T00:47:05;7.72;;;4.97;;
37063;SDS011;23211;53.912;9.138;2022-08-19T00:49:53;11.10;;;5.88;;
37063;SDS011;23211;53.912;9.138;2022-08-19T00:52:43;7.55;;;5.38;;
37063;SDS011;23211;53.912;9.138;2022-08-19T00:55:31;7.05;;;4.90;;
37063;SDS011;23211;53.912;9.138;2022-08-19T00:58:19;11.00;;;5.40;;
37063;SDS011;23211;53.912;9.138;2022-08-19T01:01:07;11.90;;;5.78;;
37063;SDS011;23211;53.912;9.138;2022-08-19T01:03:53;9.35;;;5.10;;
37063;SDS011;23211;53.912;9.138;2022-08-19T01:06:39;9.50;;;5.68;;
37063;SDS011;23211;53.912;9.138;2022-08-19T01:09:28;8.30;;;5.18;;
37063;SDS011;23211;53.912;9.138;2022-08-19T01:12:15;6.63;;;4.68;;
37063;SDS011;23211;53.912;9.138;2022-08-19T01:15:02;6.53;;;5.30;;
37063;SDS011;23211;53.912;9.138;2022-08-19T01:17:49;6.53;;;4.57;;
37063;SDS011;23211;53.912;9.138;2022-08-19T01:20:36;8.85;;;5.18;;
37063;SDS011;23211;53.912;9.138;2022-08-19T01:23:22;9.85;;;5.13;;
37063;SDS011;23211;53.912;9.138;2022-08-19T01:26:27;7.55;;;4.65;;
37063;SDS011;23211;53.912;9.138;2022-08-19T01:29:14;10.18;;;5.88;;
37063;SDS011;23211;53.912;9.138;2022-08-19T01:32:00;9.65;;;6.43;;
37063;SDS011;23211;53.912;9.138;2022-08-19T01:34:47;11.63;;;6.07;;
37063;SDS011;23211;53.912;9.138;2022-08-19T01:37:46;9.77;;;6.68;;
37063;SDS011;23211;53.912;9.138;2022-08-19T01:40:35;10.10;;;6.13;;
37063;SDS011;23211;53.912;9.138;2022-08-19T01:43:23;7.40;;;6.00;;
37063;SDS011;23211;53.912;9.138;2022-08-19T01:46:09;10.23;;;6.00;;
37063;SDS011;23211;53.912;9.138;2022-08-19T01:48:55;8.95;;;6.30;;
37063;SDS011;23211;53.912;9.138;2022-08-19T01:51:41;10.40;;;6.18;;
37063;SDS011;23211;53.912;9.138;2022-08-19T01:54:27;8.25;;;5.65;;
37063;SDS011;23211;53.912;9.138;2022-08-19T01:57:13;11.20;;;6.68;;
37063;SDS011;23211;53.912;9.138;2022-08-19T01:59:59;6.32;;;5.68;;
37063;SDS011;23211;53.912;9.138;2022-08-19T02:02:56;14.30;;;7.15;;
37063;SDS011;23211;53.912;9.138;2022-08-19T02:05:43;8.00;;;6.93;;
37063;SDS011;23211;53.912;9.138;2022-08-19T02:08:29;8.70;;;6.25;;
37063;SDS011;23211;53.912;9.138;2022-08-19T02:11:27;8.73;;;6.53;;
37063;SDS011;23211;53.912;9.138;2022-08-19T02:14:16;10.80;;;6.82;;
37063;SDS011;23211;53.912;9.138;2022-08-19T02:17:02;7.93;;;6.55;;
37063;SDS011;23211;53.912;9.138;2022-08-19T02:19:48;10.73;;;6.88;;
37063;SDS011;23211;53.912;9.138;2022-08-19T02:22:34;10.55;;;6.47;;
37063;SDS011;23211;53.912;9.138;2022-08-19T02:25:20;10.73;;;7.50;;
37063;SDS011;23211;53.912;9.138;2022-08-19T02:28:06;10.38;;;6.97;;
37063;SDS011;23211;53.912;9.138;2022-08-19T02:30:56;11.27;;;7.18;;
37063;SDS011;23211;53.912;9.138;2022-08-19T02:33:42;8.20;;;6.50;;
37063;SDS011;23211;53.912;9.138;2022-08-19T02:36:29;10.43;;;7.75;;
37063;SDS011;23211;53.912;9.138;2022-08-19T02:39:15;8.75;;;6.82;;
37063;SDS011;23211;53.912;9.138;2022-08-19T02:42:01;8.52;;;7.72;;
37063;SDS011;23211;53.912;9.138;2022-08-19T02:44:47;11.95;;;7.22;;
37063;SDS011;23211;53.912;9.138;2022-08-19T02:47:33;10.68;;;8.50;;
37063;SDS011;23211;53.912;9.138;2022-08-19T02:50:19;12.18;;;8.52;;
37063;SDS011;23211;53.912;9.138;2022-08-19T02:53:05;13.32;;;9.35;;
37063;SDS011;23211;53.912;9.138;2022-08-19T02:55:52;13.93;;;9.00;;
37063;SDS011;23211;53.912;9.138;2022-08-19T02:58:38;11.63;;;9.25;;
37063;SDS011;23211;53.912;9.138;2022-08-19T03:01:25;11.88;;;9.38;;
37063;SDS011;23211;53.912;9.138;2022-08-19T03:04:14;12.30;;;9.48;;
37063;SDS011;23211;53.912;9.138;2022-08-19T03:07:00;11.27;;;9.15;;
37063;SDS011;23211;53.912;9.138;2022-08-19T03:09:46;14.18;;;9.57;;
37063;SDS011;23211;53.912;9.138;2022-08-19T03:12:34;12.95;;;10.38;;
37063;SDS011;23211;53.912;9.138;2022-08-19T03:15:22;13.55;;;9.85;;
37063;SDS011;23211;53.912;9.138;2022-08-19T03:18:08;11.70;;;9.38;;
37063;SDS011;23211;53.912;9.138;2022-08-19T03:20:54;12.30;;;10.20;;
37063;SDS011;23211;53.912;9.138;2022-08-19T03:23:41;12.93;;;10.30;;
37063;SDS011;23211;53.912;9.138;2022-08-19T03:26:27;19.92;;;10.48;;
37063;SDS011;23211;53.912;9.138;2022-08-19T03:29:14;12.77;;;10.10;;
37063;SDS011;23211;53.912;9.138;2022-08-19T03:32:00;12.57;;;9.75;;
37063;SDS011;23211;53.912;9.138;2022-08-19T03:34:48;12.30;;;9.82;;
37063;SDS011;23211;53.912;9.138;2022-08-19T03:37:36;10.43;;;8.85;;
37063;SDS011;23211;53.912;9.138;2022-08-19T03:40:21;10.18;;;8.48;;
37063;SDS011;23211;53.912;9.138;2022-08-19T03:43:07;11.07;;;8.07;;
37063;SDS011;23211;53.912;9.138;2022-08-19T03:46:03;10.82;;;7.18;;
37063;SDS011;23211;53.912;9.138;2022-08-19T03:48:51;10.82;;;7.97;;
37063;SDS011;23211;53.912;9.138;2022-08-19T03:51:39;11.35;;;8.07;;
37063;SDS011;23211;53.912;9.138;2022-08-19T03:54:27;10.02;;;8.15;;
37063;SDS011;23211;53.912;9.138;2022-08-19T03:57:13;9.68;;;7.90;;
37063;SDS011;23211;53.912;9.138;2022-08-19T03:59:59;10.35;;;8.05;;
37063;SDS011;23211;53.912;9.138;2022-08-19T04:02:45;8.18;;;7.18;;
37063;SDS011;23211;53.912;9.138;2022-08-19T04:05:31;8.95;;;7.05;;
37063;SDS011;23211;53.912;9.138;2022-08-19T04:08:16;11.00;;;6.38;;
37063;SDS011;23211;53.912;9.138;2022-08-19T04:11:09;9.48;;;5.60;;
37063;SDS011;23211;53.912;9.138;2022-08-19T04:13:56;6.72;;;4.93;;
37063;SDS011;23211;53.912;9.138;2022-08-19T04:16:42;8.38;;;4.82;;
37063;SDS011;23211;53.912;9.138;2022-08-19T04:19:30;5.28;;;4.63;;
37063;SDS011;23211;53.912;9.138;2022-08-19T04:22:16;11.38;;;5.10;;
37063;SDS011;23211;53.912;9.138;2022-08-19T04:25:02;5.55;;;4.65;;
37063;SDS011;23211;53.912;9.138;2022-08-19T04:27:48;6.40;;;4.82;;
37063;SDS011;23211;53.912;9.138;2022-08-19T04:30:41;5.57;;;4.43;;
37063;SDS011;23211;53.912;9.138;2022-08-19T04:33:29;8.90;;;4.93;;
37063;SDS011;23211;53.912;9.138;2022-08-19T04:36:16;8.48;;;5.03;;
37063;SDS011;23211;53.912;9.138;2022-08-19T04:39:14;8.50;;;4.50;;
37063;SDS011;23211;53.912;9.138;2022-08-19T04:42:02;8.45;;;5.63;;
37063;SDS011;23211;53.912;9.138;2022-08-19T04:45:07;9.88;;;5.00;;
37063;SDS011;23211;53.912;9.138;2022-08-19T04:47:55;6.68;;;4.88;;
37063;SDS011;23211;53.912;9.138;2022-08-19T04:50:42;10.63;;;4.60;;
37063;SDS011;23211;53.912;9.138;2022-08-19T04:53:31;7.40;;;4.35;;
37063;SDS011;23211;53.912;9.138;2022-08-19T04:56:19;6.43;;;4.55;;
37063;SDS011;23211;53.912;9.138;2022-08-19T04:59:11;6.10;;;4.28;;
37063;SDS011;23211;53.912;9.138;2022-08-19T05:01:57;5.53;;;4.10;;
37063;SDS011;23211;53.912;9.138;2022-08-19T05:04:43;9.70;;;4.10;;
37063;SDS011;23211;53.912;9.138;2022-08-19T05:07:28;7.95;;;4.47;;
37063;SDS011;23211;53.912;9.138;2022-08-19T05:10:15;7.22;;;4.88;;
37063;SDS011;23211;53.912;9.138;2022-08-19T05:13:00;6.38;;;4.20;;
37063;SDS011;23211;53.912;9.138;2022-08-19T05:15:53;5.07;;;3.70;;
37063;SDS011;23211;53.912;9.138;2022-08-19T05:18:40;4.80;;;3.67;;
37063;SDS011;23211;53.912;9.138;2022-08-19T05:21:45;5.38;;;3.22;;
37063;SDS011;23211;53.912;9.138;2022-08-19T05:24:50;5.75;;;3.50;;
37063;SDS011;23211;53.912;9.138;2022-08-19T05:27:35;4.82;;;3.75;;
37063;SDS011;23211;53.912;9.138;2022-08-19T05:30:22;8.52;;;3.95;;
37063;SDS011;23211;53.912;9.138;2022-08-19T05:33:08;5.85;;;3.75;;
37063;SDS011;23211;53.912;9.138;2022-08-19T05:35:55;7.07;;;3.58;;
37063;SDS011;23211;53.912;9.138;2022-08-19T05:38:41;16.48;;;3.90;;
37063;SDS011;23211;53.912;9.138;2022-08-19T05:41:27;6.18;;;3.90;;
37063;SDS011;23211;53.912;9.138;2022-08-19T05:44:15;5.90;;;4.20;;
37063;SDS011;23211;53.912;9.138;2022-08-19T05:47:03;9.00;;;3.97;;
37063;SDS011;23211;53.912;9.138;2022-08-19T05:49:51;6.25;;;4.28;;
37063;SDS011;23211;53.912;9.138;2022-08-19T05:52:37;7.18;;;4.20;;
37063;SDS011;23211;53.912;9.138;2022-08-19T05:55:23;8.57;;;4.03;;
37063;SDS011;23211;53.912;9.138;2022-08-19T05:58:09;7.72;;;5.07;;
37063;SDS011;23211;53.912;9.138;2022-08-19T06:00:55;7.38;;;4.30;;
37063;SDS011;23211;53.912;9.138;2022-08-19T06:03:44;6.50;;;4.25;;
37063;SDS011;23211;53.912;9.138;2022-08-19T06:06:30;8.32;;;4.05;;
37063;SDS011;23211;53.912;9.138;2022-08-19T06:09:15;9.57;;;4.88;;
37063;SDS011;23211;53.912;9.138;2022-08-19T06:12:01;6.68;;;4.03;;
37063;SDS011;23211;53.912;9.138;2022-08-19T06:14:49;8.38;;;5.18;;
37063;SDS011;23211;53.912;9.138;2022-08-19T06:17:36;7.53;;;5.00;;
37063;SDS011;23211;53.912;9.138;2022-08-19T06:20:22;5.05;;;4.43;;
37063;SDS011;23211;53.912;9.138;2022-08-19T06:23:08;5.68;;;4.03;;
37063;SDS011;23211;53.912;9.138;2022-08-19T06:25:54;12.75;;;4.57;;
37063;SDS011;23211;53.912;9.138;2022-08-19T06:28:40;6.30;;;4.20;;
37063;SDS011;23211;53.912;9.138;2022-08-19T06:31:30;6.25;;;4.97;;
37063;SDS011;23211;53.912;9.138;2022-08-19T06:34:19;5.60;;;4.45;;
37063;SDS011;23211;53.912;9.138;2022-08-19T06:37:05;7.88;;;5.28;;
37063;SDS011;23211;53.912;9.138;2022-08-19T06:39:51;6.68;;;4.55;;
37063;SDS011;23211;53.912;9.138;2022-08-19T06:42:36;10.30;;;5.43;;
37063;SDS011;23211;53.912;9.138;2022-08-19T06:45:23;10.65;;;5.13;;
37063;SDS011;23211;53.912;9.138;2022-08-19T06:48:10;11.52;;;5.90;;
37063;SDS011;23211;53.912;9.138;2022-08-19T06:50:56;8.10;;;5.28;;
37063;SDS011;23211;53.912;9.138;2022-08-19T06:53:41;9.05;;;4.95;;
37063;SDS011;23211;53.912;9.138;2022-08-19T06:56:32;5.90;;;4.93;;
37063;SDS011;23211;53.912;9.138;2022-08-19T06:59:22;5.68;;;3.95;;
37063;SDS011;23211;53.912;9.138;2022-08-19T07:02:12;5.50;;;4.32;;
37063;SDS011;23211;53.912;9.138;2022-08-19T07:04:58;5.22;;;4.32;;
37063;SDS011;23211;53.912;9.138;2022-08-19T07:07:44;8.43;;;4.65;;
37063;SDS011;23211;53.912;9.138;2022-08-19T07:10:29;6.57;;;4.45;;
37063;SDS011;23211;53.912;9.138;2022-08-19T07:13:17;4.60;;;4.10;;
37063;SDS011;23211;53.912;9.138;2022-08-19T07:16:07;9.95;;;4.47;;
37063;SDS011;23211;53.912;9.138;2022-08-19T07:18:53;7.50;;;3.83;;
37063;SDS011;23211;53.912;9.138;2022-08-19T07:21:40;6.05;;;4.32;;
37063;SDS011;23211;53.912;9.138;2022-08-19T07:24:27;7.22;;;4.13;;
37063;SDS011;23211;53.912;9.138;2022-08-19T07:27:13;6.93;;;4.55;;
37063;SDS011;23211;53.912;9.138;2022-08-19T07:30:00;9.27;;;4.63;;
37063;SDS011;23211;53.912;9.138;2022-08-19T07:32:46;5.80;;;4.28;;
37063;SDS011;23211;53.912;9.138;2022-08-19T07:35:31;12.13;;;4.60;;
37063;SDS011;23211;53.912;9.138;2022-08-19T07:38:17;7.13;;;4.38;;
37063;SDS011;23211;53.912;9.138;2022-08-19T07:41:03;8.32;;;4.68;;
37063;SDS011;23211;53.912;9.138;2022-08-19T07:43:49;7.05;;;4.65;;
37063;SDS011;23211;53.912;9.138;2022-08-19T07:46:38;8.65;;;4.95;;
37063;SDS011;23211;53.912;9.138;2022-08-19T07:49:26;6.55;;;4.78;;
37063;SDS011;23211;53.912;9.138;2022-08-19T07:52:12;7.15;;;4.57;;
37063;SDS011;23211;53.912;9.138;2022-08-19T07:54:58;5.32;;;4.13;;
37063;SDS011;23211;53.912;9.138;2022-08-19T07:57:45;7.78;;;5.05;;
37063;SDS011;23211;53.912;9.138;2022-08-19T08:00:31;7.70;;;3.25;;
37063;SDS011;23211;53.912;9.138;2022-08-19T08:03:17;6.28;;;4.90;;
37063;SDS011;23211;53.912;9.138;2022-08-19T08:06:05;11.93;;;4.75;;
37063;SDS011;23211;53.912;9.138;2022-08-19T08:09:09;7.90;;;4.53;;
37063;SDS011;23211;53.912;9.138;2022-08-19T08:11:57;13.43;;;4.28;;
37063;SDS011;23211;53.912;9.138;2022-08-19T08:14:48;7.88;;;4.35;;
37063;SDS011;23211;53.912;9.138;2022-08-19T08:17:35;5.75;;;3.58;;
37063;SDS011;23211;53.912;9.138;2022-08-19T08:20:21;9.02;;;3.67;;
37063;SDS011;23211;53.912;9.138;2022-08-19T08:23:07;6.95;;;4.18;;
37063;SDS011;23211;53.912;9.138;2022-08-19T08:26:09;5.38;;;3.30;;
37063;SDS011;23211;53.912;9.138;2022-08-19T08:28:54;5.97;;;3.67;;
37063;SDS011;23211;53.912;9.138;2022-08-19T08:31:41;6.35;;;3.95;;
37063;SDS011;23211;53.912;9.138;2022-08-19T08:34:29;6.30;;;3.80;;
37063;SDS011;23211;53.912;9.138;2022-08-19T08:37:15;5.85;;;3.95;;
37063;SDS011;23211;53.912;9.138;2022-08-19T08:40:09;9.18;;;4.35;;
37063;SDS011;23211;53.912;9.138;2022-08-19T08:52:21;9.38;;;4.45;;
37063;SDS011;23211;53.912;9.138;2022-08-19T08:55:12;7.53;;;4.13;;
37063;SDS011;23211;53.912;9.138;2022-08-19T08:58:09;5.68;;;3.85;;
37063;SDS011;23211;53.912;9.138;2022-08-19T09:01:01;8.07;;;4.25;;
37063;SDS011;23211;53.912;9.138;2022-08-19T09:03:47;6.15;;;4.65;;
37063;SDS011;23211;53.912;9.138;2022-08-19T09:06:37;6.25;;;4.97;;
37063;SDS011;23211;53.912;9.138;2022-08-19T09:09:34;7.85;;;4.30;;
37063;SDS011;23211;53.912;9.138;2022-08-19T09:15:28;9.48;;;5.00;;
37063;SDS011;23211;53.912;9.138;2022-08-19T09:18:20;6.47;;;4.95;;
37063;SDS011;23211;53.912;9.138;2022-08-19T09:21:06;8.07;;;6.00;;
37063;SDS011;23211;53.912;9.138;2022-08-19T09:23:54;8.27;;;5.47;;
37063;SDS011;23211;53.912;9.138;2022-08-19T09:26:39;9.88;;;7.93;;
37063;SDS011;23211;53.912;9.138;2022-08-19T09:29:25;7.82;;;6.95;;
37063;SDS011;23211;53.912;9.138;2022-08-19T09:32:11;8.57;;;6.85;;
37063;SDS011;23211;53.912;9.138;2022-08-19T09:34:57;7.82;;;6.20;;
37063;SDS011;23211;53.912;9.138;2022-08-19T09:37:45;9.55;;;5.75;;
37063;SDS011;23211;53.912;9.138;2022-08-19T09:40:31;6.55;;;5.43;;
37063;SDS011;23211;53.912;9.138;2022-08-19T09:43:17;6.20;;;5.35;;
37063;SDS011;23211;53.912;9.138;2022-08-19T09:46:03;9.60;;;6.03;;
37063;SDS011;23211;53.912;9.138;2022-08-19T09:48:53;6.15;;;4.60;;
37063;SDS011;23211;53.912;9.138;2022-08-19T09:51:39;9.30;;;6.05;;
37063;SDS011;23211;53.912;9.138;2022-08-19T09:54:25;7.82;;;5.25;;
37063;SDS011;23211;53.912;9.138;2022-08-19T09:57:12;9.57;;;6.03;;
37063;SDS011;23211;53.912;9.138;2022-08-19T09:59:58;8.00;;;6.05;;
37063;SDS011;23211;53.912;9.138;2022-08-19T10:02:44;7.95;;;5.43;;
37063;SDS011;23211;53.912;9.138;2022-08-19T10:05:30;7.38;;;5.28;;
37063;SDS011;23211;53.912;9.138;2022-08-19T10:08:34;8.77;;;5.25;;
37063;SDS011;23211;53.912;9.138;2022-08-19T10:11:22;10.48;;;5.20;;
37063;SDS011;23211;53.912;9.138;2022-08-19T10:14:08;6.03;;;5.25;;
37063;SDS011;23211;53.912;9.138;2022-08-19T10:16:54;5.90;;;4.53;;
37063;SDS011;23211;53.912;9.138;2022-08-19T10:19:39;8.05;;;5.38;;
37063;SDS011;23211;53.912;9.138;2022-08-19T10:22:25;6.30;;;4.90;;
37063;SDS011;23211;53.912;9.138;2022-08-19T10:25:11;6.13;;;4.30;;
37063;SDS011;23211;53.912;9.138;2022-08-19T10:27:59;7.97;;;4.88;;
37063;SDS011;23211;53.912;9.138;2022-08-19T10:30:45;6.13;;;4.07;;
37063;SDS011;23211;53.912;9.138;2022-08-19T10:33:32;9.98;;;3.80;;
37063;SDS011;23211;53.912;9.138;2022-08-19T10:36:22;6.47;;;4.13;;
37063;SDS011;23211;53.912;9.138;2022-08-19T10:39:09;8.07;;;3.67;;
37063;SDS011;23211;53.912;9.138;2022-08-19T10:41:57;4.88;;;3.50;;
37063;SDS011;23211;53.912;9.138;2022-08-19T10:44:43;4.90;;;3.70;;
37063;SDS011;23211;53.912;9.138;2022-08-19T10:47:29;4.90;;;3.58;;
37063;SDS011;23211;53.912;9.138;2022-08-19T10:50:14;6.28;;;4.50;;
37063;SDS011;23211;53.912;9.138;2022-08-19T10:53:19;9.73;;;4.75;;
37063;SDS011;23211;53.912;9.138;2022-08-19T10:56:09;7.65;;;5.22;;
37063;SDS011;23211;53.912;9.138;2022-08-19T10:59:13;7.07;;;4.40;;
37063;SDS011;23211;53.912;9.138;2022-08-19T11:02:01;6.15;;;5.03;;
37063;SDS011;23211;53.912;9.138;2022-08-19T11:04:49;7.50;;;5.65;;
37063;SDS011;23211;53.912;9.138;2022-08-19T11:07:37;7.45;;;5.07;;
37063;SDS011;23211;53.912;9.138;2022-08-19T11:10:24;7.95;;;4.85;;
37063;SDS011;23211;53.912;9.138;2022-08-19T11:13:10;5.82;;;4.47;;
37063;SDS011;23211;53.912;9.138;2022-08-19T11:16:18;7.85;;;5.00;;
37063;SDS011;23211;53.912;9.138;2022-08-19T11:19:04;5.57;;;4.47;;
37063;SDS011;23211;53.912;9.138;2022-08-19T11:21:53;6.30;;;5.28;;
37063;SDS011;23211;53.912;9.138;2022-08-19T11:24:39;6.75;;;4.65;;
37063;SDS011;23211;53.912;9.138;2022-08-19T11:27:25;6.82;;;5.13;;
37063;SDS011;23211;53.912;9.138;2022-08-19T11:30:11;7.68;;;5.60;;
37063;SDS011;23211;53.912;9.138;2022-08-19T11:32:58;6.97;;;4.50;;
37063;SDS011;23211;53.912;9.138;2022-08-19T11:35:46;5.90;;;4.50;;
37063;SDS011;23211;53.912;9.138;2022-08-19T11:38:31;7.15;;;4.50;;
37063;SDS011;23211;53.912;9.138;2022-08-19T11:41:19;5.05;;;4.53;;
37063;SDS011;23211;53.912;9.138;2022-08-19T11:44:08;7.43;;;4.80;;
37063;SDS011;23211;53.912;9.138;2022-08-19T11:46:54;5.20;;;4.05;;
37063;SDS011;23211;53.912;9.138;2022-08-19T11:49:40;6.78;;;4.20;;
37063;SDS011;23211;53.912;9.138;2022-08-19T11:52:26;8.10;;;4.13;;
37063;SDS011;23211;53.912;9.138;2022-08-19T11:55:12;6.55;;;4.38;;
37063;SDS011;23211;53.912;9.138;2022-08-19T11:57:59;8.48;;;4.90;;
37063;SDS011;23211;53.912;9.138;2022-08-19T12:00:45;6.57;;;5.32;;
37063;SDS011;23211;53.912;9.138;2022-08-19T12:03:30;4.95;;;4.47;;
37063;SDS011;23211;53.912;9.138;2022-08-19T12:06:17;6.57;;;4.65;;
37063;SDS011;23211;53.912;9.138;2022-08-19T12:09:06;5.32;;;4.00;;
37063;SDS011;23211;53.912;9.138;2022-08-19T12:11:54;6.50;;;4.03;;
37063;SDS011;23211;53.912;9.138;2022-08-19T12:14:40;5.95;;;4.15;;
37063;SDS011;23211;53.912;9.138;2022-08-19T12:17:26;5.85;;;4.28;;
37063;SDS011;23211;53.912;9.138;2022-08-19T12:20:12;8.23;;;4.05;;
37063;SDS011;23211;53.912;9.138;2022-08-19T12:23:00;7.30;;;4.97;;
37063;SDS011;23211;53.912;9.138;2022-08-19T12:25:47;6.30;;;4.57;;
37063;SDS011;23211;53.912;9.138;2022-08-19T12:28:37;8.52;;;4.10;;
37063;SDS011;23211;53.912;9.138;2022-08-19T12:31:23;5.15;;;3.65;;
37063;SDS011;23211;53.912;9.138;2022-08-19T12:34:09;5.47;;;4.35;;
37063;SDS011;23211;53.912;9.138;2022-08-19T12:36:56;7.13;;;4.80;;
37063;SDS011;23211;53.912;9.138;2022-08-19T12:39:43;5.18;;;4.35;;
37063;SDS011;23211;53.912;9.138;2022-08-19T12:42:29;6.82;;;4.57;;
37063;SDS011;23211;53.912;9.138;2022-08-19T12:45:15;5.88;;;4.70;;
37063;SDS011;23211;53.912;9.138;2022-08-19T12:48:01;6.38;;;4.80;;
37063;SDS011;23211;53.912;9.138;2022-08-19T12:50:48;5.93;;;4.60;;
37063;SDS011;23211;53.912;9.138;2022-08-19T12:53:34;6.45;;;3.60;;
37063;SDS011;23211;53.912;9.138;2022-08-19T12:56:21;4.38;;;3.85;;
37063;SDS011;23211;53.912;9.138;2022-08-19T12:59:06;3.42;;;2.95;;
37063;SDS011;23211;53.912;9.138;2022-08-19T13:01:53;4.78;;;3.35;;
37063;SDS011;23211;53.912;9.138;2022-08-19T13:04:39;4.43;;;3.42;;
37063;SDS011;23211;53.912;9.138;2022-08-19T13:07:26;3.33;;;3.00;;
37063;SDS011;23211;53.912;9.138;2022-08-19T13:10:13;3.25;;;2.95;;
37063;SDS011;23211;53.912;9.138;2022-08-19T13:13:02;3.60;;;3.08;;
37063;SDS011;23211;53.912;9.138;2022-08-19T13:15:51;4.32;;;3.53;;
37063;SDS011;23211;53.912;9.138;2022-08-19T13:18:37;4.65;;;3.50;;
37063;SDS011;23211;53.912;9.138;2022-08-19T13:21:26;5.47;;;3.80;;
37063;SDS011;23211;53.912;9.138;2022-08-19T13:24:16;5.05;;;3.47;;
37063;SDS011;23211;53.912;9.138;2022-08-19T13:27:03;3.50;;;3.20;;
37063;SDS011;23211;53.912;9.138;2022-08-19T13:29:49;3.92;;;3.30;;
37063;SDS011;23211;53.912;9.138;2022-08-19T13:32:53;4.22;;;3.28;;
37063;SDS011;23211;53.912;9.138;2022-08-19T13:35:57;2.75;;;2.47;;
37063;SDS011;23211;53.912;9.138;2022-08-19T13:38:45;21.75;;;3.05;;
37063;SDS011;23211;53.912;9.138;2022-08-19T13:41:31;6.80;;;4.47;;
37063;SDS011;23211;53.912;9.138;2022-08-19T13:44:17;5.38;;;4.32;;
37063;SDS011;23211;53.912;9.138;2022-08-19T13:47:04;5.05;;;4.07;;
37063;SDS011;23211;53.912;9.138;2022-08-19T13:49:52;4.47;;;3.63;;
37063;SDS011;23211;53.912;9.138;2022-08-19T13:52:38;7.32;;;4.68;;
37063;SDS011;23211;53.912;9.138;2022-08-19T13:55:25;5.10;;;4.25;;
37063;SDS011;23211;53.912;9.138;2022-08-19T13:58:12;7.43;;;5.05;;
37063;SDS011;23211;53.912;9.138;2022-08-19T14:00:58;6.65;;;5.50;;
37063;SDS011;23211;53.912;9.138;2022-08-19T14:03:44;9.13;;;5.88;;
37063;SDS011;23211;53.912;9.138;2022-08-19T14:06:30;6.43;;;5.78;;
37063;SDS011;23211;53.912;9.138;2022-08-19T14:09:16;10.63;;;7.78;;
37063;SDS011;23211;53.912;9.138;2022-08-19T14:12:02;10.73;;;7.88;;
37063;SDS011;23211;53.912;9.138;2022-08-19T14:14:48;10.82;;;8.70;;
37063;SDS011;23211;53.912;9.138;2022-08-19T14:17:34;11.40;;;9.60;;
37063;SDS011;23211;53.912;9.138;2022-08-19T14:20:23;14.68;;;9.80;;
37063;SDS011;23211;53.912;9.138;2022-08-19T14:23:09;13.32;;;9.45;;
37063;SDS011;23211;53.912;9.138;2022-08-19T14:26:08;11.02;;;8.57;;
37063;SDS011;23211;53.912;9.138;2022-08-19T14:28:56;9.73;;;8.23;;
37063;SDS011;23211;53.912;9.138;2022-08-19T14:31:43;12.00;;;9.45;;
37063;SDS011;23211;53.912;9.138;2022-08-19T14:34:29;9.85;;;8.25;;
37063;SDS011;23211;53.912;9.138;2022-08-19T14:37:16;18.00;;;13.02;;
37063;SDS011;23211;53.912;9.138;2022-08-19T14:40:02;15.52;;;12.43;;
37063;SDS011;23211;53.912;9.138;2022-08-19T14:42:49;11.20;;;7.90;;
37063;SDS011;23211;53.912;9.138;2022-08-19T14:45:35;7.95;;;6.35;;
37063;SDS011;23211;53.912;9.138;2022-08-19T14:48:22;9.68;;;6.75;;
37063;SDS011;23211;53.912;9.138;2022-08-19T14:51:08;10.52;;;6.60;;
37063;SDS011;23211;53.912;9.138;2022-08-19T14:53:55;5.68;;;4.57;;
37063;SDS011;23211;53.912;9.138;2022-08-19T14:56:41;4.55;;;3.17;;
37063;SDS011;23211;53.912;9.138;2022-08-19T14:59:27;3.47;;;3.05;;
37063;SDS011;23211;53.912;9.138;2022-08-19T15:02:13;90.72;;;12.90;;
37063;SDS011;23211;53.912;9.138;2022-08-19T15:04:58;35.22;;;7.40;;
37063;SDS011;23211;53.912;9.138;2022-08-19T15:07:44;10.23;;;3.22;;
37063;SDS011;23211;53.912;9.138;2022-08-19T15:10:30;4.43;;;2.95;;
37063;SDS011;23211;53.912;9.138;2022-08-19T15:13:16;5.22;;;2.60;;
37063;SDS011;23211;53.912;9.138;2022-08-19T15:16:02;2.30;;;2.10;;
37063;SDS011;23211;53.912;9.138;2022-08-19T15:18:50;2.40;;;1.90;;
37063;SDS011;23211;53.912;9.138;2022-08-19T15:21:37;2.42;;;1.88;;
37063;SDS011;23211;53.912;9.138;2022-08-19T15:24:23;2.65;;;2.38;;
37063;SDS011;23211;53.912;9.138;2022-08-19T15:27:10;2.20;;;1.95;;
37063;SDS011;23211;53.912;9.138;2022-08-19T15:29:57;2.80;;;1.80;;
37063;SDS011;23211;53.912;9.138;2022-08-19T15:32:43;2.40;;;1.70;;
37063;SDS011;23211;53.912;9.138;2022-08-19T15:35:29;3.60;;;1.48;;
37063;SDS011;23211;53.912;9.138;2022-08-19T15:38:15;3.47;;;1.77;;
37063;SDS011;23211;53.912;9.138;2022-08-19T15:41:13;2.17;;;1.73;;
37063;SDS011;23211;53.912;9.138;2022-08-19T15:44:09;1.80;;;1.65;;
37063;SDS011;23211;53.912;9.138;2022-08-19T15:46:57;1.83;;;1.50;;
37063;SDS011;23211;53.912;9.138;2022-08-19T15:49:43;2.13;;;1.40;;
37063;SDS011;23211;53.912;9.138;2022-08-19T15:52:29;3.83;;;2.00;;
37063;SDS011;23211;53.912;9.138;2022-08-19T15:55:19;1.75;;;1.65;;
37063;SDS011;23211;53.912;9.138;2022-08-19T15:58:09;1.83;;;1.58;;
37063;SDS011;23211;53.912;9.138;2022-08-19T16:01:15;3.17;;;1.48;;
37063;SDS011;23211;53.912;9.138;2022-08-19T16:04:19;1.73;;;1.63;;
37063;SDS011;23211;53.912;9.138;2022-08-19T16:07:24;1.88;;;1.67;;
37063;SDS011;23211;53.912;9.138;2022-08-19T16:10:10;1.80;;;1.60;;
37063;SDS011;23211;53.912;9.138;2022-08-19T16:12:56;2.17;;;1.50;;
37063;SDS011;23211;53.912;9.138;2022-08-19T16:15:42;3.30;;;1.80;;
37063;SDS011;23211;53.912;9.138;2022-08-19T16:18:29;3.08;;;1.50;;
37063;SDS011;23211;53.912;9.138;2022-08-19T16:21:15;1.98;;;1.40;;
37063;SDS011;23211;53.912;9.138;2022-08-19T16:24:05;4.32;;;3.30;;
37063;SDS011;23211;53.912;9.138;2022-08-19T16:26:52;5.97;;;3.80;;
37063;SDS011;23211;53.912;9.138;2022-08-19T16:29:38;8.45;;;4.32;;
37063;SDS011;23211;53.912;9.138;2022-08-19T16:32:24;8.88;;;4.90;;
37063;SDS011;23211;53.912;9.138;2022-08-19T16:35:10;3.05;;;2.47;;
37063;SDS011;23211;53.912;9.138;2022-08-19T16:37:56;4.40;;;2.10;;
37063;SDS011;23211;53.912;9.138;2022-08-19T16:40:42;2.80;;;2.47;;
37063;SDS011;23211;53.912;9.138;2022-08-19T16:43:28;2.35;;;2.10;;
37063;SDS011;23211;53.912;9.138;2022-08-19T16:46:15;3.03;;;1.70;;
37063;SDS011;23211;53.912;9.138;2022-08-19T16:49:02;1.52;;;1.42;;
37063;SDS011;23211;53.912;9.138;2022-08-19T16:51:48;1.75;;;1.55;;
37063;SDS011;23211;53.912;9.138;2022-08-19T16:54:37;3.25;;;1.60;;
37063;SDS011;23211;53.912;9.138;2022-08-19T16:57:23;1.67;;;1.35;;
37063;SDS011;23211;53.912;9.138;2022-08-19T17:00:09;2.80;;;1.67;;
37063;SDS011;23211;53.912;9.138;2022-08-19T17:03:03;5.35;;;1.52;;